createdAt,value
2017-06-10T00:01:32.869Z,1005.89
2017-06-10T00:03:48.357Z,1005.92
2017-06-10T00:06:03.807Z,1005.91
2017-06-10T00:08:27.715Z,1005.93
2017-06-10T00:10:43.169Z,1005.93
2017-06-10T00:13:07.064Z,1005.89
2017-06-10T00:15:22.527Z,1005.94
2017-06-10T00:17:38.036Z,1005.89
2017-06-10T00:20:01.903Z,1005.91
2017-06-10T00:22:25.784Z,1005.93
2017-06-10T00:24:27.621Z,1005.95
2017-06-10T00:26:37.936Z,1005.99
2017-06-10T00:29:01.878Z,1006
2017-06-10T00:31:25.756Z,1006.09
2017-06-10T00:33:42.157Z,1006.11
2017-06-10T00:35:43.618Z,1006.13
2017-06-10T00:38:07.490Z,1006.08
2017-06-10T00:40:31.368Z,1006.09
2017-06-10T00:42:46.817Z,1006.11
2017-06-10T00:45:02.218Z,1006.16
2017-06-10T00:47:17.694Z,1006.17
2017-06-10T00:49:33.150Z,1006.15
2017-06-10T00:51:57.057Z,1006.12
2017-06-10T00:54:12.542Z,1006.15
2017-06-10T00:56:36.415Z,1006.21
2017-06-10T00:59:00.291Z,1006.19
2017-06-10T01:01:24.164Z,1006.22
2017-06-10T01:03:25.487Z,1006.22
2017-06-10T01:05:49.394Z,1006.22
2017-06-10T01:08:13.274Z,1006.18
2017-06-10T01:10:28.753Z,1006.27
2017-06-10T01:12:52.516Z,1006.29
2017-06-10T01:15:16.400Z,1006.31
2017-06-10T01:17:31.773Z,1006.31
2017-06-10T01:19:56.684Z,1006.33
2017-06-10T01:22:20.555Z,1006.41
2017-06-10T01:24:44.432Z,1006.42
2017-06-10T01:26:45.827Z,1006.46
2017-06-10T01:28:52.843Z,1006.43
2017-06-10T01:31:08.320Z,1006.45
2017-06-10T01:33:10.147Z,1006.53
2017-06-10T01:35:33.980Z,1006.49
2017-06-10T01:37:49.436Z,1006.49
2017-06-10T01:40:04.815Z,1006.49
2017-06-10T01:42:20.186Z,1006.48
2017-06-10T01:44:44.104Z,1006.44
2017-06-10T01:46:59.569Z,1006.43
2017-06-10T01:49:09.391Z,1006.45
2017-06-10T01:51:33.295Z,1006.44
2017-06-10T01:53:48.754Z,1006.5
2017-06-10T01:56:12.541Z,1006.55
2017-06-10T01:58:36.320Z,1006.61
2017-06-10T02:01:00.095Z,1006.62
2017-06-10T02:03:23.874Z,1006.63
2017-06-10T02:05:47.746Z,1006.67
2017-06-10T02:08:11.628Z,1006.69
2017-06-10T02:10:27.001Z,1006.78
2017-06-10T02:12:50.885Z,1006.77
2017-06-10T02:14:52.193Z,1006.75
2017-06-10T02:17:07.611Z,1006.75
2017-06-10T02:19:31.479Z,1006.77
2017-06-10T02:21:32.783Z,1006.81
2017-06-10T02:23:39.792Z,1006.82
2017-06-10T02:26:03.594Z,1006.83
2017-06-10T02:28:27.464Z,1006.82
2017-06-10T02:30:51.232Z,1006.87
2017-06-10T02:33:06.604Z,1006.85
2017-06-10T02:35:30.382Z,1006.87
2017-06-10T02:37:45.766Z,1006.88
2017-06-10T02:40:09.533Z,1006.88
2017-06-10T02:42:33.326Z,1006.89
2017-06-10T02:44:57.090Z,1006.92
2017-06-10T02:47:20.857Z,1006.98
2017-06-10T02:49:44.643Z,1006.97
2017-06-10T02:52:08.413Z,1007
2017-06-10T02:54:32.188Z,1006.99
2017-06-10T02:56:55.968Z,1007.07
2017-06-10T02:59:11.345Z,1007.08
2017-06-10T03:01:26.701Z,1007.11
2017-06-10T03:03:43.007Z,1007.15
2017-06-10T03:06:06.798Z,1007.14
2017-06-10T03:08:30.674Z,1007.18
2017-06-10T03:10:55.477Z,1007.22
2017-06-10T03:13:19.351Z,1007.22
2017-06-10T03:15:43.230Z,1007.21
2017-06-10T03:18:07.103Z,1007.24
2017-06-10T03:20:31.904Z,1007.29
2017-06-10T03:22:42.225Z,1007.32
2017-06-10T03:25:06.145Z,1007.41
2017-06-10T03:27:30.017Z,1007.38
2017-06-10T03:29:45.363Z,1007.43
2017-06-10T03:32:09.168Z,1007.42
2017-06-10T03:34:24.629Z,1007.44
2017-06-10T03:36:40.034Z,1007.43
2017-06-10T03:38:55.483Z,1007.46
2017-06-10T03:41:11.894Z,1007.48
2017-06-10T03:43:27.365Z,1007.51
2017-06-10T03:45:51.173Z,1007.47
2017-06-10T03:48:16.068Z,1007.47
2017-06-10T03:50:31.529Z,1007.53
2017-06-10T03:52:57.374Z,1007.51
2017-06-10T03:55:22.281Z,1007.54
2017-06-10T03:57:38.782Z,1007.57
2017-06-10T04:00:03.593Z,1007.59
2017-06-10T04:02:27.457Z,1007.59
2017-06-10T04:04:51.329Z,1007.59
2017-06-10T04:07:15.198Z,1007.61
2017-06-10T04:09:30.562Z,1007.57
2017-06-10T04:11:54.463Z,1007.57
2017-06-10T04:14:25.106Z,1007.57
2017-06-10T04:16:48.979Z,1007.56
2017-06-10T04:19:12.868Z,1007.63
2017-06-10T04:21:28.417Z,1007.67
2017-06-10T04:23:35.510Z,1007.62
2017-06-10T04:25:59.549Z,1007.75
2017-06-10T04:28:23.750Z,1007.78
2017-06-10T04:30:48.065Z,1007.84
2017-06-10T04:33:04.079Z,1007.86
2017-06-10T04:35:06.087Z,1007.86
2017-06-10T04:37:22.415Z,1007.93
2017-06-10T04:39:49.257Z,1007.91
2017-06-10T04:42:14.174Z,1007.92
2017-06-10T04:44:39.179Z,1008.01
2017-06-10T04:47:04.310Z,1008.1
2017-06-10T04:49:29.526Z,1008.09
2017-06-10T04:51:54.746Z,1008.15
2017-06-10T04:54:22.014Z,1008.13
2017-06-10T04:56:49.283Z,1008.1
2017-06-10T04:59:14.707Z,1008.21
2017-06-10T05:01:39.630Z,1008.26
2017-06-10T05:03:33.349Z,1008.31
2017-06-10T05:05:59.062Z,1008.35
2017-06-10T05:08:24.775Z,1008.3
2017-06-10T05:10:50.614Z,1008.3
2017-06-10T05:13:08.062Z,1008.31
2017-06-10T05:15:25.541Z,1008.37
2017-06-10T05:17:43.087Z,1008.44
2017-06-10T05:20:09.287Z,1008.5
2017-06-10T05:22:34.760Z,1008.41
2017-06-10T05:24:37.216Z,1008.43
2017-06-10T05:27:04.694Z,1008.46
2017-06-10T05:29:33.185Z,1008.57
2017-06-10T05:32:00.720Z,1008.62
2017-06-10T05:34:18.833Z,1008.68
2017-06-10T05:36:47.620Z,1008.61
2017-06-10T05:38:58.938Z,1008.66
2017-06-10T05:41:27.815Z,1008.73
2017-06-10T05:43:47.185Z,1008.71
2017-06-10T05:46:00.562Z,1008.75
2017-06-10T05:48:27.703Z,1008.74
2017-06-10T05:50:54.868Z,1008.78
2017-06-10T05:53:22.029Z,1008.8
2017-06-10T05:55:49.181Z,1008.84
2017-06-10T05:58:07.830Z,1008.85
2017-06-10T06:00:35.227Z,1008.92
2017-06-10T06:03:04.643Z,1008.98
2017-06-10T06:05:34.054Z,1009.01
2017-06-10T06:07:52.880Z,1009.02
2017-06-10T06:10:20.379Z,1009.01
2017-06-10T06:12:39.233Z,1008.88
2017-06-10T06:15:13.245Z,1009.08
2017-06-10T06:17:40.588Z,1009.05
2017-06-10T06:20:09.857Z,1009.16
2017-06-10T06:22:43.763Z,1008.87
2017-06-10T06:25:04.244Z,1009.16
2017-06-10T06:27:31.305Z,1009.14
2017-06-10T06:29:58.359Z,1008.91
2017-06-10T06:32:25.411Z,1009.19
2017-06-10T06:34:52.594Z,1009.25
2017-06-10T06:37:19.867Z,1009.27
2017-06-10T06:39:54.849Z,1009.22
2017-06-10T06:42:14.563Z,1009.21
2017-06-10T06:44:48.806Z,1009.12
2017-06-10T06:47:18.077Z,1009.15
2017-06-10T06:49:36.616Z,1009.11
2017-06-10T06:52:05.593Z,1009.11
2017-06-10T06:54:32.418Z,1009.16
2017-06-10T06:56:59.130Z,1009.2
2017-06-10T06:59:18.090Z,1009.17
2017-06-10T07:01:44.666Z,1009.21
2017-06-10T07:04:10.902Z,1009.21
2017-06-10T07:06:37.113Z,1009.29
2017-06-10T07:09:10.093Z,1009.3
2017-06-10T07:11:36.108Z,1009.29
2017-06-10T07:14:02.123Z,1009.33
2017-06-10T07:16:28.150Z,1009.38
2017-06-10T07:18:45.566Z,1009.36
2017-06-10T07:21:11.485Z,1009.36
2017-06-10T07:23:28.814Z,1009.37
2017-06-10T07:25:55.648Z,1009.38
2017-06-10T07:28:21.480Z,1009.39
2017-06-10T07:30:49.336Z,1009.41
2017-06-10T07:33:17.213Z,1009.41
2017-06-10T07:35:19.503Z,1009.35
2017-06-10T07:37:36.777Z,1009.32
2017-06-10T07:40:02.513Z,1009.32
2017-06-10T07:42:28.339Z,1009.3
2017-06-10T07:44:54.048Z,1009.34
2017-06-10T07:47:20.793Z,1009.35
2017-06-10T07:49:48.567Z,1009.34
2017-06-10T07:52:14.275Z,1009.34
2017-06-10T07:54:41.031Z,1009.33
2017-06-10T07:57:06.776Z,1009.36
2017-06-10T07:59:32.592Z,1009.36
2017-06-10T08:01:58.405Z,1009.37
2017-06-10T08:04:15.629Z,1009.38
2017-06-10T08:06:41.465Z,1009.37
2017-06-10T08:09:07.390Z,1009.42
2017-06-10T08:11:33.310Z,1009.4
2017-06-10T08:14:00.271Z,1009.44
2017-06-10T08:16:26.293Z,1009.44
2017-06-10T08:18:52.116Z,1009.5
2017-06-10T08:20:54.452Z,1009.48
2017-06-10T08:24:56.699Z,1009.53
2017-06-10T08:27:22.703Z,1009.56
2017-06-10T08:29:48.805Z,1009.6
2017-06-10T08:32:14.778Z,1009.61
2017-06-10T08:34:40.805Z,1009.6
2017-06-10T08:37:06.846Z,1009.61
2017-06-10T08:39:32.970Z,1009.65
2017-06-10T08:41:59.119Z,1009.66
2017-06-10T08:44:25.250Z,1009.73
2017-06-10T08:46:51.491Z,1009.77
2017-06-10T08:49:17.604Z,1009.78
2017-06-10T08:51:26.699Z,1009.78
2017-06-10T08:53:31.001Z,1009.85
2017-06-10T08:55:57.309Z,1009.89
2017-06-10T08:58:23.548Z,1009.9
2017-06-10T09:00:41.207Z,1009.87
2017-06-10T09:03:07.514Z,1009.86
2017-06-10T09:05:25.207Z,1009.87
2017-06-10T09:07:43.900Z,1009.88
2017-06-10T09:10:01.640Z,1009.87
2017-06-10T09:14:04.344Z,1009.83
2017-06-10T09:16:13.490Z,1009.64
2017-06-10T09:18:31.047Z,1009.84
2017-06-10T09:20:57.199Z,1009.55
2017-06-10T09:23:14.756Z,1009.77
2017-06-10T09:25:17.132Z,1009.8
2017-06-10T09:27:43.202Z,1009.75
2017-06-10T09:30:09.227Z,1009.77
2017-06-10T09:32:35.264Z,1009.58
2017-06-10T09:35:01.270Z,1009.49
2017-06-10T09:37:27.182Z,1009.5
2017-06-10T09:39:52.967Z,1009.53
2017-06-10T09:42:10.052Z,1009.61
2017-06-10T09:44:35.586Z,1009.47
2017-06-10T09:46:44.056Z,1009.44
2017-06-10T09:49:09.483Z,1009.64
2017-06-10T09:51:34.898Z,1009.58
2017-06-10T09:54:00.328Z,1009.62
2017-06-10T09:56:17.214Z,1009.53
2017-06-10T09:58:42.653Z,1009.56
2017-06-10T10:00:53.502Z,1009.52
2017-06-10T10:03:19.057Z,1009.5
2017-06-10T10:05:44.564Z,1009.47
2017-06-10T10:08:10.084Z,1009.43
2017-06-10T10:10:35.609Z,1009.43
2017-06-10T10:12:37.835Z,1009.31
2017-06-10T10:15:03.393Z,1009.38
2017-06-10T10:17:28.906Z,1009.39
2017-06-10T10:19:54.409Z,1009.41
2017-06-10T10:22:19.931Z,1009.4
2017-06-10T10:24:36.948Z,1009.34
2017-06-10T10:27:02.450Z,1009.37
2017-06-10T10:29:27.867Z,1009.34
2017-06-10T10:31:44.775Z,1009.31
2017-06-10T10:34:10.177Z,1009.25
2017-06-10T10:36:35.585Z,1009.19
2017-06-10T10:38:52.393Z,1009.11
2017-06-10T10:41:17.698Z,1009.07
2017-06-10T10:43:43.019Z,1009.15
2017-06-10T10:46:08.327Z,1009.19
2017-06-10T10:48:33.628Z,1009.16
2017-06-10T10:50:58.826Z,1009.14
2017-06-10T10:53:24.041Z,1009.03
2017-06-10T10:55:49.239Z,1009.06
2017-06-10T10:58:05.833Z,1009.13
2017-06-10T11:00:30.939Z,1009.16
2017-06-10T11:02:56.047Z,1009.16
2017-06-10T11:05:21.132Z,1009.1
2017-06-10T11:07:46.256Z,1009.13
2017-06-10T11:10:11.361Z,1009.09
2017-06-10T11:12:36.460Z,1009.08
2017-06-10T11:15:01.569Z,1009.11
2017-06-10T11:17:18.170Z,1009.05
2017-06-10T11:19:34.804Z,1009.04
2017-06-10T11:21:59.887Z,1009.03
2017-06-10T11:24:25.001Z,1009.03
2017-06-10T11:26:50.091Z,1008.95
2017-06-10T11:29:15.095Z,1008.86
2017-06-10T11:31:40.093Z,1008.81
2017-06-10T11:33:56.592Z,1008.82
2017-06-10T11:36:13.100Z,1008.75
2017-06-10T11:38:29.610Z,1008.7
2017-06-10T11:40:54.529Z,1008.72
2017-06-10T11:43:11.006Z,1008.62
2017-06-10T11:45:35.901Z,1008.6
2017-06-10T11:47:52.422Z,1008.62
2017-06-10T11:50:17.414Z,1008.65
2017-06-10T11:52:33.927Z,1008.62
2017-06-10T11:54:58.919Z,1008.57
2017-06-10T11:57:23.927Z,1008.57
2017-06-10T11:59:27.015Z,1008.57
2017-06-10T12:01:52.016Z,1008.6
2017-06-10T12:04:17.020Z,1008.62
2017-06-10T12:06:42.027Z,1008.62
2017-06-10T12:08:58.535Z,1008.61
2017-06-10T12:11:09.192Z,1008.56
2017-06-10T12:13:34.183Z,1008.58
2017-06-10T12:15:59.094Z,1008.54
2017-06-10T12:18:24.000Z,1008.53
2017-06-10T12:20:48.902Z,1008.51
2017-06-10T12:23:13.897Z,1008.48
2017-06-10T12:25:38.715Z,1008.45
2017-06-10T12:28:03.600Z,1008.38
2017-06-10T12:30:20.016Z,1008.35
2017-06-10T12:32:44.998Z,1008.38
2017-06-10T12:35:10.931Z,1008.38
2017-06-10T12:37:27.433Z,1008.34
2017-06-10T12:39:52.324Z,1008.3
2017-06-10T12:42:08.739Z,1008.3
2017-06-10T12:44:33.639Z,1008.28
2017-06-10T12:46:58.521Z,1008.31
2017-06-10T12:49:14.951Z,1008.28
2017-06-10T12:51:39.830Z,1008.25
2017-06-10T12:54:04.737Z,1008.2
2017-06-10T12:56:21.148Z,1008.16
2017-06-10T12:58:46.037Z,1008.1
2017-06-10T13:01:10.949Z,1008.1
2017-06-10T13:03:35.839Z,1008.08
2017-06-10T13:06:00.741Z,1008.14
2017-06-10T13:08:25.639Z,1008.12
2017-06-10T13:10:50.539Z,1008.11
2017-06-10T13:13:15.447Z,1008.06
2017-06-10T13:15:40.347Z,1007.98
2017-06-10T13:18:05.252Z,1008
2017-06-10T13:20:07.310Z,1007.96
2017-06-10T13:22:32.218Z,1008.01
2017-06-10T13:24:48.623Z,1008.02
2017-06-10T13:26:50.701Z,1007.99
2017-06-10T13:29:15.580Z,1007.99
2017-06-10T13:31:32.002Z,1008
2017-06-10T13:33:56.883Z,1007.96
2017-06-10T13:36:13.191Z,1007.99
2017-06-10T13:38:37.963Z,1007.91
2017-06-10T13:40:54.293Z,1007.88
2017-06-10T13:43:19.068Z,1007.88
2017-06-10T13:45:43.878Z,1007.83
2017-06-10T13:48:08.779Z,1007.79
2017-06-10T13:50:33.679Z,1007.69
2017-06-10T13:52:50.091Z,1007.72
2017-06-10T13:55:14.982Z,1007.65
2017-06-10T13:57:39.778Z,1007.57
2017-06-10T13:59:47.690Z,1007.59
2017-06-10T14:02:12.576Z,1007.63
2017-06-10T14:04:37.377Z,1007.63
2017-06-10T14:07:02.277Z,1007.59
2017-06-10T14:09:18.593Z,1007.63
2017-06-10T14:11:43.385Z,1007.63
2017-06-10T14:14:08.305Z,1007.62
2017-06-10T14:16:33.185Z,1007.63
2017-06-10T14:18:58.097Z,1007.66
2017-06-10T14:21:14.521Z,1007.69
2017-06-10T14:23:30.910Z,1007.68
2017-06-10T14:25:55.791Z,1007.69
2017-06-10T14:28:20.713Z,1007.61
2017-06-10T14:30:45.701Z,1007.59
2017-06-10T14:33:10.602Z,1007.6
2017-06-10T14:35:35.505Z,1007.65
2017-06-10T14:38:00.404Z,1007.6
2017-06-10T14:40:25.299Z,1007.56
2017-06-10T14:42:50.100Z,1007.53
2017-06-10T14:45:15.017Z,1007.52
2017-06-10T14:47:39.907Z,1007.48
2017-06-10T14:50:04.805Z,1007.42
2017-06-10T14:52:21.236Z,1007.42
2017-06-10T14:54:37.609Z,1007.39
2017-06-10T14:56:54.000Z,1007.34
2017-06-10T14:59:18.805Z,1007.34
2017-06-10T15:01:43.596Z,1007.3
2017-06-10T15:03:59.910Z,1007.32
2017-06-10T15:06:24.704Z,1007.32
2017-06-10T15:08:49.496Z,1007.35
2017-06-10T15:11:14.302Z,1007.33
2017-06-10T15:13:39.099Z,1007.27
2017-06-10T15:15:46.919Z,1007.26
2017-06-10T15:18:11.691Z,1007.19
2017-06-10T15:20:36.493Z,1007.22
2017-06-10T15:22:52.793Z,1007.18
2017-06-10T15:25:03.446Z,1007.1
2017-06-10T15:27:19.864Z,1007.14
2017-06-10T15:29:44.659Z,1007.15
2017-06-10T15:32:09.446Z,1007.19
2017-06-10T15:34:34.256Z,1007.19
2017-06-10T15:36:59.047Z,1007.17
2017-06-10T15:39:23.850Z,1007.11
2017-06-10T15:41:25.915Z,1007.09
2017-06-10T15:43:42.319Z,1007.06
2017-06-10T15:46:07.122Z,1007.03
2017-06-10T15:48:31.917Z,1007.04
2017-06-10T15:50:56.729Z,1006.97
2017-06-10T15:53:21.517Z,1006.98
2017-06-10T15:55:46.314Z,1006.97
2017-06-10T15:58:11.111Z,1006.97
2017-06-10T16:00:18.950Z,1006.97
2017-06-10T16:02:43.697Z,1006.97
2017-06-10T16:05:00.023Z,1006.95
2017-06-10T16:07:02.088Z,1006.96
2017-06-10T16:09:26.866Z,1006.96
2017-06-10T16:11:51.656Z,1007.02
2017-06-10T16:14:16.463Z,1006.96
2017-06-10T16:16:32.784Z,1006.94
2017-06-10T16:18:57.568Z,1006.94
2017-06-10T16:21:22.363Z,1006.97
2017-06-10T16:23:47.172Z,1006.95
2017-06-10T16:26:11.955Z,1006.99
2017-06-10T16:28:28.256Z,1007
2017-06-10T16:30:53.058Z,1006.93
2017-06-10T16:32:55.088Z,1006.96
2017-06-10T16:35:19.817Z,1007.05
2017-06-10T16:37:36.115Z,1007.04
2017-06-10T16:40:00.805Z,1007.01
2017-06-10T16:42:25.503Z,1006.94
2017-06-10T16:44:50.193Z,1007
2017-06-10T16:47:14.881Z,1006.99
2017-06-10T16:49:31.082Z,1007.06
2017-06-10T16:51:55.780Z,1007.07
2017-06-10T16:54:11.984Z,1007.08
2017-06-10T16:56:36.604Z,1007.13
2017-06-10T16:59:01.218Z,1007.09
2017-06-10T17:01:11.326Z,1007.12
2017-06-10T17:03:35.975Z,1007.13
2017-06-10T17:05:52.107Z,1007.13
2017-06-10T17:08:16.717Z,1007.08
2017-06-10T17:10:41.342Z,1007.11
2017-06-10T17:13:05.954Z,1007.08
2017-06-10T17:15:22.080Z,1007.14
2017-06-10T17:17:38.237Z,1007.13
2017-06-10T17:20:02.855Z,1007.09
2017-06-10T17:22:27.482Z,1007.09
2017-06-10T17:24:52.056Z,1007.13
2017-06-10T17:27:02.155Z,1007.15
2017-06-10T17:29:26.779Z,1007.24
2017-06-10T17:31:51.420Z,1007.2
2017-06-10T17:34:01.515Z,1007.2
2017-06-10T17:36:26.155Z,1007.24
2017-06-10T17:38:50.731Z,1007.14
2017-06-10T17:41:15.344Z,1007.19
2017-06-10T17:43:39.903Z,1007.14
2017-06-10T17:46:04.526Z,1007.09
2017-06-10T17:48:20.597Z,1007.12
2017-06-10T17:50:45.222Z,1007.14
2017-06-10T17:53:09.794Z,1007.18
2017-06-10T17:55:34.351Z,1007.16
2017-06-10T17:57:58.866Z,1007.21
2017-06-10T18:00:23.437Z,1007.21
2017-06-10T18:02:48.027Z,1007.18
2017-06-10T18:05:04.138Z,1007.17
2017-06-10T18:07:28.680Z,1007.21
2017-06-10T18:09:30.193Z,1007.17
2017-06-10T18:11:46.300Z,1007.13
2017-06-10T18:14:10.855Z,1007.19
2017-06-10T18:16:35.403Z,1007.2
2017-06-10T18:18:59.937Z,1007.18
2017-06-10T18:21:24.468Z,1007.21
2017-06-10T18:23:40.508Z,1007.23
2017-06-10T18:25:56.542Z,1007.22
2017-06-10T18:28:21.003Z,1007.19
2017-06-10T18:30:45.510Z,1007.19
2017-06-10T18:33:09.977Z,1007.23
2017-06-10T18:35:25.988Z,1007.23
2017-06-10T18:37:50.466Z,1007.2
2017-06-10T18:40:14.948Z,1007.18
2017-06-10T18:42:39.448Z,1007.2
2017-06-10T18:44:49.500Z,1007.21
2017-06-10T18:47:14.015Z,1007.19
2017-06-10T18:49:30.032Z,1007.23
2017-06-10T18:51:54.493Z,1007.23
2017-06-10T18:54:10.505Z,1007.25
2017-06-10T18:56:34.998Z,1007.23
2017-06-10T18:58:59.454Z,1007.16
2017-06-10T19:01:23.908Z,1007.12
2017-06-10T19:03:48.351Z,1007.14
2017-06-10T19:06:12.792Z,1007.14
2017-06-10T19:08:37.181Z,1007.1
2017-06-10T19:10:38.773Z,1007.14
2017-06-10T19:13:03.230Z,1007.17
2017-06-10T19:15:27.666Z,1007.2
2017-06-10T19:17:52.080Z,1007.19
2017-06-10T19:20:08.015Z,1007.2
2017-06-10T19:22:18.047Z,1007.26
2017-06-10T19:24:42.447Z,1007.27
2017-06-10T19:27:06.814Z,1007.31
2017-06-10T19:29:31.167Z,1007.35
2017-06-10T19:31:55.533Z,1007.33
2017-06-10T19:34:19.900Z,1007.33
2017-06-10T19:36:35.818Z,1007.4
2017-06-10T19:39:00.164Z,1007.48
2017-06-10T19:41:16.060Z,1007.44
2017-06-10T19:43:40.424Z,1007.42
2017-06-10T19:46:04.765Z,1007.44
2017-06-10T19:48:20.636Z,1007.45
2017-06-10T19:50:44.919Z,1007.49
2017-06-10T19:53:00.759Z,1007.57
2017-06-10T19:55:25.083Z,1007.59
2017-06-10T19:57:49.397Z,1007.61
2017-06-10T20:00:13.703Z,1007.62
2017-06-10T20:02:38.014Z,1007.63
2017-06-10T20:05:02.330Z,1007.63
2017-06-10T20:07:26.645Z,1007.68
2017-06-10T20:09:50.965Z,1007.69
2017-06-10T20:12:15.287Z,1007.63
2017-06-10T20:14:39.614Z,1007.69
2017-06-10T20:16:47.030Z,1007.74
2017-06-10T20:19:11.284Z,1007.77
2017-06-10T20:21:35.573Z,1007.77
2017-06-10T20:23:59.845Z,1007.78
2017-06-10T20:26:15.694Z,1007.7
2017-06-10T20:28:39.983Z,1007.76
2017-06-10T20:30:55.808Z,1007.86
2017-06-10T20:33:11.605Z,1007.88
2017-06-10T20:35:27.423Z,1007.87
2017-06-10T20:37:37.907Z,1007.86
2017-06-10T20:40:02.162Z,1007.88
2017-06-10T20:42:26.443Z,1007.93
2017-06-10T20:44:42.270Z,1007.91
2017-06-10T20:47:06.514Z,1007.98
2017-06-10T20:49:08.473Z,1007.98
2017-06-10T20:51:32.748Z,1007.96
2017-06-10T20:53:57.000Z,1008.01
2017-06-10T20:56:21.194Z,1008.04
2017-06-10T20:58:45.412Z,1008.07
2017-06-10T21:01:09.649Z,1007.99
2017-06-10T21:03:33.846Z,1008.01
2017-06-10T21:05:58.047Z,1008.06
2017-06-10T21:08:22.243Z,1008.04
2017-06-10T21:10:46.430Z,1008.07
2017-06-10T21:13:10.651Z,1008.07
2017-06-10T21:15:26.357Z,1008.1
2017-06-10T21:17:50.527Z,1008.11
2017-06-10T21:20:14.679Z,1008.11
2017-06-10T21:22:39.851Z,1008.1
2017-06-10T21:25:04.038Z,1008.16
2017-06-10T21:27:28.227Z,1008.24
2017-06-10T21:29:52.404Z,1008.21
2017-06-10T21:32:16.639Z,1008.17
2017-06-10T21:34:18.247Z,1008.17
2017-06-10T21:36:34.037Z,1008.16
2017-06-10T21:38:49.863Z,1008.14
2017-06-10T21:41:14.070Z,1008.13
2017-06-10T21:43:38.354Z,1008.16
2017-06-10T21:45:54.129Z,1008.19
2017-06-10T21:48:18.319Z,1008.15
2017-06-10T21:50:42.495Z,1008.14
2017-06-10T21:53:06.670Z,1008.18
2017-06-10T21:55:22.422Z,1008.16
2017-06-10T21:57:46.653Z,1008.15
2017-06-10T22:00:10.841Z,1008.15
2017-06-10T22:02:35.024Z,1008.21
2017-06-10T22:04:59.207Z,1008.18
2017-06-10T22:07:00.624Z,1008.18
2017-06-10T22:09:11.050Z,1008.14
2017-06-10T22:11:35.309Z,1008.15
2017-06-10T22:13:59.591Z,1008.13
2017-06-10T22:16:15.379Z,1008.14
2017-06-10T22:18:39.568Z,1008.11
2017-06-10T22:21:03.756Z,1008.05
2017-06-10T22:23:28.961Z,1008.05
2017-06-10T22:25:38.886Z,1008.05
2017-06-10T22:28:03.085Z,1008.12
2017-06-10T22:30:27.260Z,1008.05
2017-06-10T22:32:43.054Z,1008.05
2017-06-10T22:35:07.232Z,1008.01
2017-06-10T22:37:22.988Z,1007.99
2017-06-10T22:39:47.208Z,1008.01
2017-06-10T22:42:11.391Z,1007.96
2017-06-10T22:44:12.793Z,1007.98
2017-06-10T22:46:20.134Z,1007.97
2017-06-10T22:48:44.320Z,1007.94
2017-06-10T22:51:08.503Z,1007.91
2017-06-10T22:53:32.685Z,1007.89
2017-06-10T22:55:56.855Z,1007.81
2017-06-10T22:58:21.034Z,1007.79
2017-06-10T23:00:36.738Z,1007.83
2017-06-10T23:02:52.517Z,1007.85
2017-06-10T23:05:16.700Z,1007.77
2017-06-10T23:07:40.896Z,1007.82
2017-06-10T23:10:04.972Z,1007.79
2017-06-10T23:12:29.167Z,1007.77
2017-06-10T23:14:53.340Z,1007.81
2017-06-10T23:17:17.526Z,1007.79
2017-06-10T23:19:33.271Z,1007.78
2017-06-10T23:21:48.982Z,1007.81
2017-06-10T23:24:13.178Z,1007.85
2017-06-10T23:26:37.262Z,1007.81
2017-06-10T23:28:52.914Z,1007.86
2017-06-10T23:31:08.627Z,1007.87
2017-06-10T23:33:18.531Z,1007.85
2017-06-10T23:35:42.658Z,1007.83
2017-06-10T23:37:44.002Z,1007.77
2017-06-10T23:39:45.487Z,1007.79
2017-06-10T23:42:09.650Z,1007.8
2017-06-10T23:44:33.827Z,1007.74
2017-06-10T23:46:43.750Z,1007.75
2017-06-10T23:49:07.857Z,1007.77
2017-06-10T23:51:09.241Z,1007.74
2017-06-10T23:53:10.689Z,1007.76
2017-06-10T23:55:26.343Z,1007.76
2017-06-10T23:57:50.425Z,1007.76
